createdAt,value
2023-04-15T00:01:08.878Z,98745.59
2023-04-15T00:03:38.728Z,98738.88
2023-04-15T00:06:08.896Z,98734.75
2023-04-15T00:08:38.691Z,98744.16
2023-04-15T00:11:08.455Z,98738.72
2023-04-15T00:13:38.101Z,98738.06
2023-04-15T00:16:11.910Z,98742.03
2023-04-15T00:18:41.585Z,98743.66
2023-04-15T00:21:11.851Z,98743.13
2023-04-15T00:23:41.850Z,98732.91
2023-04-15T00:26:11.527Z,98739.91
2023-04-15T00:28:42.011Z,98731.50
2023-04-15T00:31:14.398Z,98729.72
2023-04-15T00:33:44.078Z,98729.31
2023-04-15T00:36:13.956Z,98723.59
2023-04-15T00:38:43.630Z,98726.94
2023-04-15T00:41:14.131Z,98720.72
2023-04-15T00:43:43.777Z,98720.84
2023-04-15T00:46:18.813Z,98721.50
2023-04-15T00:48:49.478Z,98716.44
2023-04-15T00:51:19.525Z,98719.63
2023-04-15T00:53:49.163Z,98716.41
2023-04-15T00:56:18.951Z,98719.03
2023-04-15T00:58:48.662Z,98716.63
2023-04-15T01:01:24.217Z,98722.16
2023-04-15T01:03:54.663Z,98715.22
2023-04-15T01:06:24.571Z,98719.09
2023-04-15T01:08:54.328Z,98713.03
2023-04-15T01:11:24.469Z,98719.41
2023-04-15T01:13:54.902Z,98717.47
2023-04-15T01:16:27.705Z,98718.47
2023-04-15T01:18:58.200Z,98708.34
2023-04-15T01:21:28.291Z,98706.06
2023-04-15T01:23:59.663Z,98703.44
2023-04-15T01:26:32.609Z,98713.38
2023-04-15T01:29:02.508Z,98705.63
2023-04-15T01:31:32.521Z,98704.41
2023-04-15T01:34:02.399Z,98711.31
2023-04-15T01:36:51.565Z,98708.28
2023-04-15T01:39:21.168Z,98704.88
2023-04-15T01:41:53.356Z,98708.34
2023-04-15T01:44:24.215Z,98710.25
2023-04-15T01:46:55.132Z,98701.88
2023-04-15T01:49:26.103Z,98706.75
2023-04-15T01:51:58.192Z,98703.53
2023-04-15T01:54:29.328Z,98704.00
2023-04-15T01:57:02.803Z,98707.91
2023-04-15T01:59:34.843Z,98701.38
2023-04-15T02:02:05.820Z,98705.28
2023-04-15T02:04:36.698Z,98708.59
2023-04-15T02:07:07.674Z,98707.72
2023-04-15T02:09:39.960Z,98708.38
2023-04-15T02:12:15.448Z,98713.44
2023-04-15T02:14:46.393Z,98720.50
2023-04-15T02:17:17.511Z,98714.91
2023-04-15T02:19:48.428Z,98723.13
2023-04-15T02:22:19.263Z,98723.06
2023-04-15T02:24:50.773Z,98721.59
2023-04-15T02:27:24.207Z,98713.38
2023-04-15T02:29:55.101Z,98724.25
2023-04-15T02:32:26.039Z,98710.88
2023-04-15T02:34:59.189Z,98711.91
2023-04-15T02:37:31.297Z,98709.47
2023-04-15T02:40:02.442Z,98717.69
2023-04-15T02:42:36.284Z,98719.84
2023-04-15T02:45:08.355Z,98711.53
2023-04-15T02:47:41.618Z,98719.59
2023-04-15T02:50:15.278Z,98715.22
2023-04-15T02:52:46.928Z,98715.84
2023-04-15T02:55:18.260Z,98726.38
2023-04-15T02:57:51.931Z,98724.16
2023-04-15T03:00:25.482Z,98726.22
2023-04-15T03:03:01.465Z,98720.88
2023-04-15T03:05:32.788Z,98722.03
2023-04-15T03:08:05.165Z,98721.81
2023-04-15T03:10:36.099Z,98718.28
2023-04-15T03:13:09.562Z,98729.19
2023-04-15T03:15:40.454Z,98726.97
2023-04-15T03:18:11.502Z,98722.94
2023-04-15T03:20:42.496Z,98725.78
2023-04-15T03:23:13.645Z,98722.81
2023-04-15T03:25:44.883Z,98719.50
2023-04-15T03:28:18.346Z,98721.38
2023-04-15T03:30:49.294Z,98723.91
2023-04-15T03:33:20.173Z,98731.25
2023-04-15T03:35:51.226Z,98731.03
2023-04-15T03:38:22.138Z,98729.91
2023-04-15T03:40:53.054Z,98729.97
2023-04-15T03:43:26.654Z,98722.97
2023-04-15T03:45:58.407Z,98727.34
2023-04-15T03:48:30.198Z,98723.25
2023-04-15T03:51:01.133Z,98726.91
2023-04-15T03:53:31.994Z,98728.09
2023-04-15T03:56:02.844Z,98727.00
2023-04-15T03:58:36.290Z,98724.75
2023-04-15T04:01:07.403Z,98726.94
2023-04-15T04:03:38.330Z,98738.75
2023-04-15T04:06:09.510Z,98731.69
2023-04-15T04:08:40.548Z,98728.22
2023-04-15T04:11:11.416Z,98730.19
2023-04-15T04:13:44.928Z,98741.25
2023-04-15T04:16:16.002Z,98742.13
2023-04-15T04:18:46.882Z,98740.53
2023-04-15T04:21:17.796Z,98744.66
2023-04-15T04:23:48.663Z,98741.88
2023-04-15T04:26:19.945Z,98752.41
2023-04-15T04:28:53.563Z,98756.38
2023-04-15T04:31:24.602Z,98756.53
2023-04-15T04:33:55.723Z,98754.94
2023-04-15T04:36:26.759Z,98751.78
2023-04-15T04:38:57.621Z,98751.66
2023-04-15T04:41:28.662Z,98747.72
2023-04-15T04:44:02.177Z,98746.22
2023-04-15T04:46:33.089Z,98742.69
2023-04-15T04:49:04.003Z,98753.44
2023-04-15T04:51:35.209Z,98751.97
2023-04-15T04:54:06.672Z,98746.09
2023-04-15T04:56:39.414Z,98752.06
2023-04-15T04:59:13.229Z,98743.00
2023-04-15T05:01:44.545Z,98750.00
2023-04-15T05:04:15.689Z,98750.41
2023-04-15T05:06:46.705Z,98751.97
2023-04-15T05:09:17.634Z,98754.44
2023-04-15T05:11:48.581Z,98753.22
2023-04-15T05:14:23.345Z,98755.50
2023-04-15T05:16:54.357Z,98753.81
2023-04-15T05:19:25.239Z,98751.03
2023-04-15T05:21:56.131Z,98747.84
2023-04-15T05:24:27.415Z,98749.69
2023-04-15T05:26:58.764Z,98739.13
2023-04-15T05:29:32.224Z,98742.94
2023-04-15T05:32:03.460Z,98746.09
2023-04-15T05:34:34.412Z,98747.84
2023-04-15T05:37:05.253Z,98760.19
2023-04-15T05:39:36.259Z,98763.03
2023-04-15T05:42:08.287Z,98775.56
2023-04-15T05:44:41.853Z,98781.34
2023-04-15T05:47:12.759Z,98776.56
2023-04-15T05:49:43.639Z,98778.84
2023-04-15T05:52:14.511Z,98768.84
2023-04-15T05:54:45.409Z,98787.94
2023-04-15T05:57:16.334Z,98784.75
2023-04-15T05:59:51.777Z,98790.44
2023-04-15T06:02:22.957Z,98788.56
2023-04-15T06:04:53.959Z,98786.94
2023-04-15T06:07:24.853Z,98805.19
2023-04-15T06:09:55.962Z,98815.88
2023-04-15T06:12:26.817Z,98813.97
2023-04-15T06:15:00.497Z,98818.78
2023-04-15T06:17:31.459Z,98814.03
2023-04-15T06:20:02.336Z,98802.81
2023-04-15T06:22:33.287Z,98799.44
2023-04-15T06:25:04.279Z,98804.81
2023-04-15T06:27:33.957Z,98815.81
2023-04-15T06:30:08.637Z,98813.84
2023-04-15T06:32:39.760Z,98812.59
2023-04-15T06:35:11.854Z,98813.28
2023-04-15T06:37:42.727Z,98829.13
2023-04-15T06:40:14.408Z,98840.34
2023-04-15T06:42:45.242Z,98865.22
2023-04-15T06:45:19.013Z,98871.47
2023-04-15T06:47:49.945Z,98860.88
2023-04-15T06:50:21.077Z,98853.69
2023-04-15T06:52:51.966Z,98851.72
2023-04-15T06:55:22.852Z,98847.41
2023-04-15T06:57:53.720Z,98842.44
2023-04-15T07:00:28.824Z,98836.53
2023-04-15T07:03:01.082Z,98838.13
2023-04-15T07:05:32.565Z,98837.59
2023-04-15T07:08:03.840Z,98841.66
2023-04-15T07:10:34.754Z,98835.75
2023-04-15T07:13:05.778Z,98840.38
2023-04-15T07:15:39.223Z,98837.31
2023-04-15T07:18:10.110Z,98841.78
2023-04-15T07:20:41.692Z,98839.53
2023-04-15T07:23:12.558Z,98841.69
2023-04-15T07:25:43.492Z,98845.97
2023-04-15T07:28:14.374Z,98843.88
2023-04-15T07:30:47.920Z,98841.28
2023-04-15T07:33:18.841Z,98843.19
2023-04-15T07:35:50.208Z,98847.72
2023-04-15T07:38:21.056Z,98858.88
2023-04-15T07:40:51.954Z,98851.75
2023-04-15T07:43:22.955Z,98851.88
2023-04-15T07:45:56.446Z,98849.09
2023-04-15T07:48:27.419Z,98855.28
2023-04-15T07:50:58.450Z,98866.44
2023-04-15T07:53:29.637Z,98868.50
2023-04-15T07:56:00.753Z,98891.00
2023-04-15T07:58:31.758Z,98887.94
2023-04-15T08:01:05.293Z,98868.72
2023-04-15T08:03:36.621Z,98857.59
2023-04-15T08:06:08.068Z,98857.47
2023-04-15T08:08:38.994Z,98880.06
2023-04-15T08:11:09.947Z,98892.53
2023-04-15T08:13:40.830Z,98885.44
2023-04-15T08:16:23.686Z,98883.50
2023-04-15T08:18:55.860Z,98891.28
2023-04-15T08:21:27.833Z,98893.84
2023-04-15T08:23:58.754Z,98891.53
2023-04-15T08:26:29.713Z,98902.31
2023-04-15T08:29:00.996Z,98898.97
2023-04-15T08:31:34.972Z,98895.50
2023-04-15T08:34:05.976Z,98891.53
2023-04-15T08:36:37.018Z,98894.75
2023-04-15T08:39:08.329Z,98899.97
2023-04-15T08:41:43.939Z,98907.38
2023-04-15T08:44:16.410Z,98913.91
2023-04-15T08:46:51.385Z,98908.16
2023-04-15T08:49:24.261Z,98916.28
2023-04-15T08:51:56.759Z,98919.34
2023-04-15T08:54:28.199Z,98914.53
2023-04-15T08:57:00.774Z,98919.78
2023-04-15T08:59:33.251Z,98904.66
2023-04-15T09:02:06.846Z,98911.38
2023-04-15T09:04:37.913Z,98909.16
2023-04-15T09:07:08.746Z,98914.25
2023-04-15T09:09:40.507Z,98910.69
2023-04-15T09:12:11.687Z,98920.22
2023-04-15T09:14:43.300Z,98918.09
2023-04-15T09:17:16.758Z,98931.75
2023-04-15T09:19:47.682Z,98934.59
2023-04-15T09:22:18.659Z,98933.28
2023-04-15T09:24:49.632Z,98936.13
2023-04-15T09:27:20.746Z,98935.78
2023-04-15T09:29:53.282Z,98944.25
2023-04-15T09:32:26.735Z,98947.22
2023-04-15T09:34:57.660Z,98945.78
2023-04-15T09:37:38.338Z,98953.06
2023-04-15T09:40:10.757Z,98958.50
2023-04-15T09:42:57.269Z,98957.19
2023-04-15T09:45:29.665Z,98960.28
2023-04-15T09:48:18.487Z,98957.41
2023-04-15T09:50:50.522Z,98962.34
2023-04-15T09:53:23.546Z,98960.81
2023-04-15T09:55:56.042Z,98956.81
2023-04-15T09:58:29.100Z,98957.31
2023-04-15T10:01:01.990Z,98966.47
2023-04-15T10:03:37.750Z,98966.03
2023-04-15T10:06:09.240Z,98991.44
2023-04-15T10:08:40.290Z,98983.63
2023-04-15T10:11:11.496Z,98984.22
2023-04-15T10:13:42.685Z,98979.25
2023-04-15T10:16:15.306Z,98990.00
2023-04-15T10:18:50.154Z,98990.72
2023-04-15T10:21:22.875Z,98994.41
2023-04-15T10:23:54.366Z,98989.91
2023-04-15T10:26:25.602Z,98991.81
2023-04-15T10:28:58.436Z,99011.19
2023-04-15T10:31:31.388Z,99009.59
2023-04-15T10:34:06.737Z,99022.06
2023-04-15T10:36:37.822Z,99022.00
2023-04-15T10:39:47.023Z,99019.44
2023-04-15T10:42:19.306Z,99024.91
2023-04-15T10:44:53.411Z,99026.00
2023-04-15T10:47:25.669Z,99022.28
2023-04-15T10:50:02.817Z,99017.25
2023-04-15T10:52:34.051Z,99024.53
2023-04-15T10:55:17.124Z,99022.50
2023-04-15T10:57:48.477Z,99025.31
2023-04-15T11:00:20.710Z,99027.50
2023-04-15T11:02:56.519Z,99034.44
2023-04-15T11:05:51.994Z,99049.50
2023-04-15T11:08:23.692Z,99041.88
2023-04-15T11:10:57.706Z,99043.50
2023-04-15T11:13:31.876Z,99043.38
2023-04-15T11:16:06.408Z,99061.88
2023-04-15T11:18:38.161Z,99067.22
2023-04-15T11:21:10.610Z,99066.63
2023-04-15T11:23:44.426Z,99063.50
2023-04-15T11:26:17.983Z,99066.41
2023-04-15T11:28:49.423Z,99062.22
2023-04-15T11:31:23.469Z,99075.91
2023-04-15T11:33:59.488Z,99076.53
2023-04-15T11:36:32.390Z,99080.50
2023-04-15T11:39:03.988Z,99086.81
2023-04-15T11:41:38.686Z,99092.25
2023-04-15T11:44:19.359Z,99098.34
2023-04-15T11:46:50.582Z,99101.00
2023-04-15T11:49:34.108Z,99103.84
2023-04-15T11:52:03.834Z,99109.16
2023-04-15T11:54:33.535Z,99107.47
2023-04-15T11:57:05.833Z,99117.72
2023-04-15T11:59:45.997Z,99123.44
2023-04-15T12:02:16.436Z,99127.59
2023-04-15T12:04:46.461Z,99137.03
2023-04-15T12:07:16.795Z,99140.53
2023-04-15T12:09:46.712Z,99148.44
2023-04-15T12:12:21.831Z,99154.31
2023-04-15T12:14:54.983Z,99155.31
2023-04-15T12:17:26.801Z,99151.09
2023-04-15T12:19:59.592Z,99147.13
2023-04-15T12:22:29.312Z,99154.81
2023-04-15T12:24:58.969Z,99154.78
2023-04-15T12:27:31.197Z,99143.41
2023-04-15T12:30:08.216Z,99149.91
2023-04-15T12:32:39.312Z,99152.03
2023-04-15T12:35:11.188Z,99150.94
2023-04-15T12:37:40.923Z,99155.75
2023-04-15T12:40:11.890Z,99153.28
2023-04-15T12:42:44.838Z,99152.78
2023-04-15T12:45:14.577Z,99160.97
2023-04-15T12:47:44.338Z,99157.34
2023-04-15T12:50:14.123Z,99151.75
2023-04-15T12:52:43.757Z,99161.50
2023-04-15T12:55:13.456Z,99159.94
2023-04-15T12:57:45.694Z,99162.47
2023-04-15T13:00:17.809Z,99165.63
2023-04-15T13:02:48.045Z,99162.66
2023-04-15T13:05:18.261Z,99174.59
2023-04-15T13:07:47.968Z,99166.38
2023-04-15T13:10:17.635Z,99165.63
2023-04-15T13:12:53.671Z,99173.88
2023-04-15T13:15:23.524Z,99180.72
2023-04-15T13:17:54.073Z,99175.94
2023-04-15T13:20:23.918Z,99180.56
2023-04-15T13:22:55.890Z,99175.66
2023-04-15T13:25:26.207Z,99185.53
2023-04-15T13:27:58.558Z,99192.00
2023-04-15T13:30:28.200Z,99193.88
2023-04-15T13:32:57.925Z,99188.59
2023-04-15T13:35:27.825Z,99195.44
2023-04-15T13:37:57.867Z,99199.38
2023-04-15T13:40:27.981Z,99198.19
2023-04-15T13:43:00.348Z,99197.59
2023-04-15T13:45:30.266Z,99202.41
2023-04-15T13:48:00.134Z,99204.84
2023-04-15T13:50:30.521Z,99208.88
2023-04-15T13:53:00.166Z,99205.03
2023-04-15T13:55:29.948Z,99210.50
2023-04-15T13:58:02.183Z,99214.47
2023-04-15T14:00:31.910Z,99213.84
2023-04-15T14:03:01.781Z,99204.59
2023-04-15T14:05:32.027Z,99213.22
2023-04-15T14:08:03.130Z,99205.19
2023-04-15T14:10:32.921Z,99219.84
2023-04-15T14:13:05.195Z,99212.94
2023-04-15T14:15:35.032Z,99204.22
2023-04-15T14:18:05.465Z,99200.94
2023-04-15T14:20:35.331Z,99203.41
2023-04-15T14:23:05.029Z,99207.16
2023-04-15T14:25:34.828Z,99195.00
2023-04-15T14:28:07.154Z,99195.69
2023-04-15T14:30:37.284Z,99198.78
2023-04-15T14:33:07.266Z,99199.84
2023-04-15T14:35:37.154Z,99188.63
2023-04-15T14:38:11.008Z,99190.03
2023-04-15T14:40:41.260Z,99194.78
2023-04-15T14:43:13.871Z,99199.25
2023-04-15T14:45:45.270Z,99206.97
2023-04-15T14:48:15.644Z,99204.78
2023-04-15T14:50:45.449Z,99210.00
2023-04-15T14:53:15.620Z,99208.09
2023-04-15T14:55:45.754Z,99206.50
2023-04-15T14:58:18.246Z,99210.72
2023-04-15T15:00:47.953Z,99213.06
2023-04-15T15:03:18.199Z,99220.16
2023-04-15T15:05:49.945Z,99221.09
2023-04-15T15:08:19.977Z,99218.59
2023-04-15T15:10:50.047Z,99216.78
2023-04-15T15:13:22.533Z,99214.47
2023-04-15T15:15:52.359Z,99234.66
2023-04-15T15:18:22.254Z,99233.44
2023-04-15T15:20:52.038Z,99238.34
2023-04-15T15:23:21.719Z,99238.34
2023-04-15T15:25:51.404Z,99240.69
2023-04-15T15:28:24.131Z,99243.81
2023-04-15T15:30:54.106Z,99243.19
2023-04-15T15:33:23.832Z,99246.50
2023-04-15T15:35:54.335Z,99247.78
2023-04-15T15:38:25.180Z,99247.47
2023-04-15T15:40:54.951Z,99259.66
2023-04-15T15:43:27.354Z,99261.16
2023-04-15T15:45:57.928Z,99254.88
2023-04-15T15:48:27.692Z,99264.84
2023-04-15T15:50:57.427Z,99275.09
2023-04-15T15:53:27.371Z,99277.59
2023-04-15T15:55:57.216Z,99273.69
2023-04-15T15:58:29.835Z,99273.66
2023-04-15T16:01:01.608Z,99287.59
2023-04-15T16:03:32.131Z,99287.31
2023-04-15T16:06:02.274Z,99292.97
2023-04-15T16:08:32.112Z,99293.38
2023-04-15T16:11:01.854Z,99301.19
2023-04-15T16:13:34.098Z,99299.00
2023-04-15T16:16:03.840Z,99302.72
2023-04-15T16:18:35.165Z,99313.34
2023-04-15T16:21:05.065Z,99304.97
2023-04-15T16:23:34.874Z,99305.84
2023-04-15T16:26:04.563Z,99309.72
2023-04-15T16:28:36.840Z,99303.06
2023-04-15T16:31:09.280Z,99308.59
2023-04-15T16:33:39.792Z,99306.47
2023-04-15T16:36:10.051Z,99314.59
2023-04-15T16:38:39.824Z,99310.06
2023-04-15T16:41:09.511Z,99317.19
2023-04-15T16:43:41.911Z,99323.28
2023-04-15T16:46:11.814Z,99338.56
2023-04-15T16:48:41.847Z,99336.16
2023-04-15T16:51:11.591Z,99345.66
2023-04-15T16:53:41.222Z,99349.25
2023-04-15T16:56:11.264Z,99344.19
2023-04-15T16:58:43.754Z,99340.13
2023-04-15T17:01:13.637Z,99343.22
2023-04-15T17:03:43.676Z,99354.25
2023-04-15T17:06:13.570Z,99364.69
2023-04-15T17:08:43.870Z,99363.09
2023-04-15T17:11:15.366Z,99368.28
2023-04-15T17:13:47.655Z,99366.53
2023-04-15T17:16:17.705Z,99365.78
2023-04-15T17:18:47.829Z,99375.16
2023-04-15T17:21:22.719Z,99393.09
2023-04-15T17:23:58.790Z,99400.53
2023-04-15T17:26:30.387Z,99418.56
2023-04-15T17:29:03.543Z,99424.50
2023-04-15T17:31:39.300Z,99433.38
2023-04-15T17:34:49.401Z,99430.81
2023-04-15T17:37:40.753Z,99429.81
2023-04-15T17:40:30.355Z,99440.16
2023-04-15T17:43:19.958Z,99459.81
2023-04-15T17:46:13.604Z,99462.91
2023-04-15T17:49:03.501Z,99476.72
2023-04-15T17:51:55.020Z,99485.19
2023-04-15T17:54:24.892Z,99496.03
2023-04-15T17:57:14.492Z,99505.09
2023-04-15T18:00:04.265Z,99511.50
2023-04-15T18:03:04.851Z,99526.06
2023-04-15T18:05:54.826Z,99516.75
2023-04-15T18:08:44.442Z,99527.75
2023-04-15T18:11:35.946Z,99520.41
2023-04-15T18:14:34.311Z,99534.84
2023-04-15T18:17:24.901Z,99529.19
2023-04-15T18:20:17.448Z,99526.41
2023-04-15T18:22:48.202Z,99520.84
2023-04-15T18:25:18.174Z,99521.66
2023-04-15T18:27:48.100Z,99522.44
2023-04-15T18:30:18.382Z,99532.97
2023-04-15T18:32:48.801Z,99527.00
2023-04-15T18:35:23.047Z,99525.88
2023-04-15T18:37:53.151Z,99521.06
2023-04-15T18:40:22.960Z,99541.59
2023-04-15T18:42:52.969Z,99538.56
2023-04-15T18:45:22.995Z,99541.25
2023-04-15T18:47:54.198Z,99548.34
2023-04-15T18:50:26.450Z,99551.81
2023-04-15T18:52:56.179Z,99546.44
2023-04-15T18:55:26.275Z,99552.78
2023-04-15T18:57:56.771Z,99562.47
2023-04-15T19:00:36.607Z,99554.25
2023-04-15T19:03:07.027Z,99555.47
2023-04-15T19:05:40.205Z,99565.38
2023-04-15T19:08:09.932Z,99560.88
2023-04-15T19:10:39.671Z,99561.41
2023-04-15T19:13:09.373Z,99564.94
2023-04-15T19:15:39.161Z,99575.06
2023-04-15T19:18:10.751Z,99579.16
2023-04-15T19:20:43.426Z,99586.00
2023-04-15T19:23:13.765Z,99589.47
2023-04-15T19:25:43.424Z,99588.69
2023-04-15T19:28:13.100Z,99599.00
2023-04-15T19:30:42.997Z,99603.59
2023-04-15T19:33:12.668Z,99604.22
2023-04-15T19:35:45.639Z,99603.91
2023-04-15T19:38:15.315Z,99612.59
2023-04-15T19:40:45.133Z,99604.34
2023-04-15T19:43:14.831Z,99608.47
2023-04-15T19:45:46.875Z,99626.94
2023-04-15T19:48:16.976Z,99620.31
2023-04-15T19:50:49.653Z,99622.69
2023-04-15T19:53:19.321Z,99612.09
2023-04-15T19:55:49.225Z,99614.72
2023-04-15T19:58:18.978Z,99605.06
2023-04-15T20:00:48.987Z,99609.31
2023-04-15T20:03:19.315Z,99606.44
2023-04-15T20:05:51.710Z,99605.25
2023-04-15T20:08:21.528Z,99596.47
2023-04-15T20:10:51.173Z,99617.69
2023-04-15T20:13:20.964Z,99616.66
2023-04-15T20:15:50.781Z,99605.28
2023-04-15T20:18:20.660Z,99609.91
2023-04-15T20:20:53.064Z,99603.78
2023-04-15T20:23:22.747Z,99592.03
2023-04-15T20:25:52.684Z,99602.91
2023-04-15T20:28:23.534Z,99594.22
2023-04-15T20:30:53.886Z,99590.94
2023-04-15T20:33:25.863Z,99586.84
2023-04-15T20:35:58.874Z,99588.72
2023-04-15T20:38:28.758Z,99579.78
2023-04-15T20:40:58.486Z,99582.97
2023-04-15T20:43:28.460Z,99573.56
2023-04-15T20:46:13.535Z,99584.50
2023-04-15T20:48:48.751Z,99597.81
2023-04-15T20:51:21.195Z,99591.41
2023-04-15T20:53:50.905Z,99594.47
2023-04-15T20:56:20.567Z,99597.47
2023-04-15T20:58:50.280Z,99591.00
2023-04-15T21:01:20.231Z,99604.16
2023-04-15T21:03:50.136Z,99616.34
2023-04-15T21:06:22.467Z,99618.81
2023-04-15T21:08:52.539Z,99622.50
2023-04-15T21:11:42.997Z,99627.19
2023-04-15T21:14:12.486Z,99634.66
2023-04-15T21:16:42.271Z,99636.75
2023-04-15T21:19:12.669Z,99640.88
2023-04-15T21:21:45.281Z,99646.13
2023-04-15T21:24:14.979Z,99640.16
2023-04-15T21:26:44.645Z,99652.19
2023-04-15T21:29:14.487Z,99647.34
2023-04-15T21:31:44.617Z,99647.28
2023-04-15T21:34:14.306Z,99654.31
2023-04-15T21:36:46.517Z,99657.22
2023-04-15T21:39:17.269Z,99645.56
2023-04-15T21:41:47.000Z,99642.13
2023-04-15T21:44:16.794Z,99650.16
2023-04-15T21:46:46.686Z,99650.19
2023-04-15T21:49:16.425Z,99653.47
2023-04-15T21:51:48.732Z,99658.09
2023-04-15T21:54:18.496Z,99658.13
2023-04-15T21:56:49.893Z,99669.84
2023-04-15T21:59:19.544Z,99667.81
2023-04-15T22:01:49.401Z,99680.84
2023-04-15T22:04:19.526Z,99671.53
2023-04-15T22:06:52.417Z,99678.34
2023-04-15T22:09:22.075Z,99677.19
2023-04-15T22:11:51.956Z,99679.66
2023-04-15T22:14:21.792Z,99682.88
2023-04-15T22:16:51.702Z,99678.66
2023-04-15T22:19:21.558Z,99690.84
2023-04-15T22:21:53.891Z,99688.88
2023-04-15T22:24:32.195Z,99680.72
2023-04-15T22:27:09.636Z,99686.50
2023-04-15T22:29:39.393Z,99682.00
2023-04-15T22:32:09.809Z,99679.78
2023-04-15T22:34:39.476Z,99680.28
2023-04-15T22:37:12.433Z,99686.13
2023-04-15T22:39:42.158Z,99688.19
2023-04-15T22:42:11.943Z,99697.06
2023-04-15T22:44:41.771Z,99692.56
2023-04-15T22:47:11.573Z,99699.56
2023-04-15T22:49:41.586Z,99702.56
2023-04-15T22:52:23.330Z,99700.44
2023-04-15T22:54:57.092Z,99698.94
2023-04-15T22:57:28.146Z,99694.28
2023-04-15T22:59:58.176Z,99686.25
2023-04-15T23:02:28.185Z,99693.25
2023-04-15T23:04:58.821Z,99692.69
2023-04-15T23:07:31.580Z,99693.69
2023-04-15T23:10:01.577Z,99694.75
2023-04-15T23:12:31.380Z,99706.00
2023-04-15T23:15:01.144Z,99707.25
2023-04-15T23:17:30.915Z,99716.13
2023-04-15T23:20:00.658Z,99714.00
2023-04-15T23:22:32.993Z,99730.03
2023-04-15T23:25:02.654Z,99731.69
2023-04-15T23:27:32.611Z,99737.03
2023-04-15T23:30:02.290Z,99731.66
2023-04-15T23:32:32.014Z,99734.88
2023-04-15T23:35:01.699Z,99746.97
2023-04-15T23:37:34.067Z,99745.72
2023-04-15T23:40:03.965Z,99765.34
2023-04-15T23:42:33.634Z,99762.22
2023-04-15T23:45:03.327Z,99757.91
2023-04-15T23:47:33.807Z,99764.34
2023-04-15T23:50:03.584Z,99766.19
2023-04-15T23:52:36.474Z,99767.19
2023-04-15T23:55:06.497Z,99765.03
2023-04-15T23:57:36.388Z,99765.03
